sensor_id;sensor_type;location;lat;lon;timestamp;pressure;altitude;pressure_sealevel;temperature;humidity
69766;BME280;57039;48.014;21.384;2023-09-19T00:00:17;100353.94;;;20.46;81.19
69766;BME280;57039;48.014;21.384;2023-09-19T00:01:22;100364.31;;;20.49;81.56
69766;BME280;57039;48.014;21.384;2023-09-19T00:02:25;100361.06;;;20.46;81.43
69766;BME280;57039;48.014;21.384;2023-09-19T00:03:29;100363.59;;;20.47;81.56
69766;BME280;57039;48.014;21.384;2023-09-19T00:04:34;100344.19;;;20.37;81.30
69766;BME280;57039;48.014;21.384;2023-09-19T00:05:38;100356.13;;;20.51;81.40
69766;BME280;57039;48.014;21.384;2023-09-19T00:06:42;100358.41;;;20.46;81.37
69766;BME280;57039;48.014;21.384;2023-09-19T00:07:48;100361.47;;;20.51;81.51
69766;BME280;57039;48.014;21.384;2023-09-19T00:08:53;100353.62;;;20.49;81.76
69766;BME280;57039;48.014;21.384;2023-09-19T00:09:57;100348.31;;;20.49;81.89
69766;BME280;57039;48.014;21.384;2023-09-19T00:11:00;100355.31;;;20.50;81.97
69766;BME280;57039;48.014;21.384;2023-09-19T00:12:08;100347.75;;;20.46;81.99
69766;BME280;57039;48.014;21.384;2023-09-19T00:13:12;100353.06;;;20.46;82.04
69766;BME280;57039;48.014;21.384;2023-09-19T00:14:18;100351.28;;;20.46;82.19
69766;BME280;57039;48.014;21.384;2023-09-19T00:15:25;100351.09;;;20.48;82.23
69766;BME280;57039;48.014;21.384;2023-09-19T00:16:31;100357.44;;;20.47;82.33
69766;BME280;57039;48.014;21.384;2023-09-19T00:17:35;100354.09;;;20.45;82.36
69766;BME280;57039;48.014;21.384;2023-09-19T00:18:39;100354.09;;;20.45;82.16
69766;BME280;57039;48.014;21.384;2023-09-19T00:19:42;100352.41;;;20.44;82.00
69766;BME280;57039;48.014;21.384;2023-09-19T00:20:45;100348.06;;;20.43;82.15
69766;BME280;57039;48.014;21.384;2023-09-19T00:21:52;100347.00;;;20.36;81.81
69766;BME280;57039;48.014;21.384;2023-09-19T00:22:56;100340.66;;;20.37;81.81
69766;BME280;57039;48.014;21.384;2023-09-19T00:24:08;100345.37;;;20.43;81.64
69766;BME280;57039;48.014;21.384;2023-09-19T00:25:11;100348.63;;;20.46;81.38
69766;BME280;57039;48.014;21.384;2023-09-19T00:26:14;100346.91;;;20.45;81.46
69766;BME280;57039;48.014;21.384;2023-09-19T00:27:19;100346.09;;;20.45;81.45
69766;BME280;57039;48.014;21.384;2023-09-19T00:28:22;100338.63;;;20.48;81.52
69766;BME280;57039;48.014;21.384;2023-09-19T00:29:25;100340.62;;;20.46;81.58
69766;BME280;57039;48.014;21.384;2023-09-19T00:30:31;100327.72;;;20.42;81.47
69766;BME280;57039;48.014;21.384;2023-09-19T00:31:35;100308.09;;;20.25;81.43
69766;BME280;57039;48.014;21.384;2023-09-19T00:32:41;100289.13;;;20.10;81.90
69766;BME280;57039;48.014;21.384;2023-09-19T00:33:45;100330.88;;;20.37;82.97
69766;BME280;57039;48.014;21.384;2023-09-19T00:34:48;100325.53;;;20.37;84.22
69766;BME280;57039;48.014;21.384;2023-09-19T00:35:52;100291.47;;;20.13;85.19
69766;BME280;57039;48.014;21.384;2023-09-19T00:36:55;100333.97;;;20.33;86.24
69766;BME280;57039;48.014;21.384;2023-09-19T00:37:58;100321.41;;;20.25;86.13
69766;BME280;57039;48.014;21.384;2023-09-19T00:39:01;100321.87;;;20.20;86.60
69766;BME280;57039;48.014;21.384;2023-09-19T00:40:06;100315.47;;;20.13;87.07
69766;BME280;57039;48.014;21.384;2023-09-19T00:41:14;100320.50;;;20.16;87.34
69766;BME280;57039;48.014;21.384;2023-09-19T00:42:19;100324.44;;;20.12;87.67
69766;BME280;57039;48.014;21.384;2023-09-19T00:43:24;100325.84;;;20.16;87.76
69766;BME280;57039;48.014;21.384;2023-09-19T00:44:28;100297.19;;;20.00;88.08
69766;BME280;57039;48.014;21.384;2023-09-19T00:45:31;100319.81;;;20.14;88.09
69766;BME280;57039;48.014;21.384;2023-09-19T00:46:35;100307.63;;;20.12;88.33
69766;BME280;57039;48.014;21.384;2023-09-19T00:47:42;100293.16;;;19.96;88.34
69766;BME280;57039;48.014;21.384;2023-09-19T00:48:45;100316.47;;;20.12;88.22
69766;BME280;57039;48.014;21.384;2023-09-19T00:49:49;100280.59;;;19.89;88.51
69766;BME280;57039;48.014;21.384;2023-09-19T00:50:52;100315.19;;;20.16;88.87
69766;BME280;57039;48.014;21.384;2023-09-19T00:51:56;100302.38;;;20.02;89.09
69766;BME280;57039;48.014;21.384;2023-09-19T00:52:59;100279.75;;;19.88;88.74
69766;BME280;57039;48.014;21.384;2023-09-19T00:54:02;100279.75;;;19.88;88.61
69766;BME280;57039;48.014;21.384;2023-09-19T00:55:07;100331.44;;;20.13;88.03
69766;BME280;57039;48.014;21.384;2023-09-19T00:56:10;100330.59;;;20.13;87.76
69766;BME280;57039;48.014;21.384;2023-09-19T00:57:14;100336.41;;;20.08;87.57
69766;BME280;57039;48.014;21.384;2023-09-19T00:58:22;100331.75;;;20.10;88.12
69766;BME280;57039;48.014;21.384;2023-09-19T00:59:25;100331.75;;;20.10;88.85
69766;BME280;57039;48.014;21.384;2023-09-19T01:00:29;100332.91;;;20.08;89.37
69766;BME280;57039;48.014;21.384;2023-09-19T01:01:32;100333.50;;;20.01;90.12
69766;BME280;57039;48.014;21.384;2023-09-19T01:02:37;100330.75;;;19.93;91.09
69766;BME280;57039;48.014;21.384;2023-09-19T01:03:42;100317.19;;;19.87;92.42
69766;BME280;57039;48.014;21.384;2023-09-19T01:04:48;100325.72;;;19.90;93.36
69766;BME280;57039;48.014;21.384;2023-09-19T01:05:51;100323.50;;;19.86;93.84
69766;BME280;57039;48.014;21.384;2023-09-19T01:06:54;100324.69;;;19.73;93.56
69766;BME280;57039;48.014;21.384;2023-09-19T01:07:58;100333.53;;;19.64;94.20
69766;BME280;57039;48.014;21.384;2023-09-19T01:09:01;100332.56;;;19.65;94.12
69766;BME280;57039;48.014;21.384;2023-09-19T01:10:08;100329.25;;;19.53;95.00
69766;BME280;57039;48.014;21.384;2023-09-19T01:12:30;100349.13;;;19.49;96.53
69766;BME280;57039;48.014;21.384;2023-09-19T01:14:55;100348.47;;;19.37;98.14
69766;BME280;57039;48.014;21.384;2023-09-19T01:16:31;100349.19;;;19.39;98.51
69766;BME280;57039;48.014;21.384;2023-09-19T01:17:53;100344.44;;;19.33;99.68
69766;BME280;57039;48.014;21.384;2023-09-19T01:20:43;100346.69;;;19.28;100.00
69766;BME280;57039;48.014;21.384;2023-09-19T01:21:55;100342.75;;;19.32;100.00
69766;BME280;57039;48.014;21.384;2023-09-19T01:28:54;100337.62;;;19.21;100.00
69766;BME280;57039;48.014;21.384;2023-09-19T01:30:11;100330.47;;;19.22;100.00
69766;BME280;57039;48.014;21.384;2023-09-19T01:31:17;100336.50;;;19.14;100.00
69766;BME280;57039;48.014;21.384;2023-09-19T01:32:23;100328.41;;;19.15;100.00
69766;BME280;57039;48.014;21.384;2023-09-19T01:33:28;100328.09;;;19.19;100.00
69766;BME280;57039;48.014;21.384;2023-09-19T01:34:47;100327.69;;;19.13;100.00
69766;BME280;57039;48.014;21.384;2023-09-19T01:35:52;100324.50;;;19.10;100.00
69766;BME280;57039;48.014;21.384;2023-09-19T01:36:55;100311.75;;;19.04;100.00
69766;BME280;57039;48.014;21.384;2023-09-19T01:37:58;100331.63;;;19.09;100.00
69766;BME280;57039;48.014;21.384;2023-09-19T01:39:04;100324.50;;;19.10;100.00
69766;BME280;57039;48.014;21.384;2023-09-19T01:40:13;100322.53;;;19.12;100.00
69766;BME280;57039;48.014;21.384;2023-09-19T01:41:26;100327.16;;;19.10;100.00
69766;BME280;57039;48.014;21.384;2023-09-19T01:42:41;100318.37;;;19.00;100.00
69766;BME280;57039;48.014;21.384;2023-09-19T01:43:45;100325.59;;;19.07;100.00
69766;BME280;57039;48.014;21.384;2023-09-19T01:45:26;100331.09;;;19.06;100.00
69766;BME280;57039;48.014;21.384;2023-09-19T01:46:40;100330.12;;;18.97;100.00
69766;BME280;57039;48.014;21.384;2023-09-19T01:47:52;100326.34;;;18.90;100.00
69766;BME280;57039;48.014;21.384;2023-09-19T01:49:30;100339.66;;;18.80;100.00
69766;BME280;57039;48.014;21.384;2023-09-19T01:51:10;100344.25;;;18.78;100.00
69766;BME280;57039;48.014;21.384;2023-09-19T01:52:13;100345.37;;;18.66;100.00
69766;BME280;57039;48.014;21.384;2023-09-19T01:53:25;100341.31;;;18.71;100.00
69766;BME280;57039;48.014;21.384;2023-09-19T01:54:34;100328.16;;;18.51;100.00
69766;BME280;57039;48.014;21.384;2023-09-19T01:55:48;100356.16;;;18.64;100.00
69766;BME280;57039;48.014;21.384;2023-09-19T01:57:01;100351.66;;;18.65;100.00
69766;BME280;57039;48.014;21.384;2023-09-19T01:58:12;100342.16;;;18.53;100.00
69766;BME280;57039;48.014;21.384;2023-09-19T01:59:22;100361.88;;;18.60;100.00
69766;BME280;57039;48.014;21.384;2023-09-19T02:00:27;100357.69;;;18.67;100.00
69766;BME280;57039;48.014;21.384;2023-09-19T02:01:33;100363.97;;;18.66;100.00
69766;BME280;57039;48.014;21.384;2023-09-19T02:02:38;100362.28;;;18.65;100.00
69766;BME280;57039;48.014;21.384;2023-09-19T02:03:43;100365.63;;;18.57;100.00
69766;BME280;57039;48.014;21.384;2023-09-19T02:04:48;100357.28;;;18.52;100.00
69766;BME280;57039;48.014;21.384;2023-09-19T02:05:52;100332.50;;;18.52;100.00
69766;BME280;57039;48.014;21.384;2023-09-19T02:06:57;100297.56;;;18.46;100.00
69766;BME280;57039;48.014;21.384;2023-09-19T02:08:01;100293.09;;;18.37;100.00
69766;BME280;57039;48.014;21.384;2023-09-19T02:09:03;100280.94;;;18.25;100.00
69766;BME280;57039;48.014;21.384;2023-09-19T02:10:07;100294.34;;;18.33;100.00
69766;BME280;57039;48.014;21.384;2023-09-19T02:11:10;100299.91;;;18.30;100.00
69766;BME280;57039;48.014;21.384;2023-09-19T02:12:14;100300.06;;;18.29;100.00
69766;BME280;57039;48.014;21.384;2023-09-19T02:13:19;100290.69;;;18.15;100.00
69766;BME280;57039;48.014;21.384;2023-09-19T02:14:22;100291.53;;;18.15;100.00
69766;BME280;57039;48.014;21.384;2023-09-19T02:15:25;100281.34;;;18.11;100.00
69766;BME280;57039;48.014;21.384;2023-09-19T02:16:30;100306.06;;;18.31;100.00
69766;BME280;57039;48.014;21.384;2023-09-19T02:17:33;100294.22;;;18.35;100.00
69766;BME280;57039;48.014;21.384;2023-09-19T02:18:35;100302.72;;;18.38;100.00
69766;BME280;57039;48.014;21.384;2023-09-19T02:19:38;100294.75;;;18.38;100.00
69766;BME280;57039;48.014;21.384;2023-09-19T02:20:43;100297.41;;;18.38;100.00
69766;BME280;57039;48.014;21.384;2023-09-19T02:21:46;100288.34;;;18.31;100.00
69766;BME280;57039;48.014;21.384;2023-09-19T02:22:51;100306.78;;;18.42;100.00
69766;BME280;57039;48.014;21.384;2023-09-19T02:23:55;100292.09;;;18.38;100.00
69766;BME280;57039;48.014;21.384;2023-09-19T02:24:59;100299.38;;;18.46;100.00
69766;BME280;57039;48.014;21.384;2023-09-19T02:26:03;100302.72;;;18.48;100.00
69766;BME280;57039;48.014;21.384;2023-09-19T02:27:07;100305.37;;;18.48;100.00
69766;BME280;57039;48.014;21.384;2023-09-19T02:28:10;100305.09;;;18.51;100.00
69766;BME280;57039;48.014;21.384;2023-09-19T02:29:15;100310.56;;;18.50;100.00
69766;BME280;57039;48.014;21.384;2023-09-19T02:30:18;100300.34;;;18.45;100.00
69766;BME280;57039;48.014;21.384;2023-09-19T02:31:23;100307.91;;;18.50;100.00
69766;BME280;57039;48.014;21.384;2023-09-19T02:32:30;100310.84;;;18.46;100.00
69766;BME280;57039;48.014;21.384;2023-09-19T02:33:34;100305.81;;;18.53;100.00
69766;BME280;57039;48.014;21.384;2023-09-19T02:34:37;100311.81;;;18.55;100.00
69766;BME280;57039;48.014;21.384;2023-09-19T02:35:42;100311.00;;;18.55;100.00
69766;BME280;57039;48.014;21.384;2023-09-19T02:36:45;100304.97;;;18.53;100.00
69766;BME280;57039;48.014;21.384;2023-09-19T02:37:50;100315.44;;;18.54;100.00
69766;BME280;57039;48.014;21.384;2023-09-19T02:38:53;100294.34;;;18.43;100.00
69766;BME280;57039;48.014;21.384;2023-09-19T02:39:56;100313.50;;;18.46;100.00
69766;BME280;57039;48.014;21.384;2023-09-19T02:40:59;100307.34;;;18.46;100.00
69766;BME280;57039;48.014;21.384;2023-09-19T02:42:02;100297.41;;;18.38;100.00
69766;BME280;57039;48.014;21.384;2023-09-19T02:43:06;100300.78;;;18.40;100.00
69766;BME280;57039;48.014;21.384;2023-09-19T02:44:11;100293.09;;;18.37;100.00
69766;BME280;57039;48.014;21.384;2023-09-19T02:45:14;100269.59;;;18.23;100.00
69766;BME280;57039;48.014;21.384;2023-09-19T02:46:18;100290.84;;;18.42;100.00
69766;BME280;57039;48.014;21.384;2023-09-19T02:47:21;100306.22;;;18.48;100.00
69766;BME280;57039;48.014;21.384;2023-09-19T02:48:24;100296.72;;;18.46;100.00
69766;BME280;57039;48.014;21.384;2023-09-19T02:49:28;100297.84;;;18.43;100.00
69766;BME280;57039;48.014;21.384;2023-09-19T02:50:31;100299.38;;;18.46;100.00
69766;BME280;57039;48.014;21.384;2023-09-19T02:51:34;100286.78;;;18.38;100.00
69766;BME280;57039;48.014;21.384;2023-09-19T02:52:37;100291.00;;;18.41;100.00
69766;BME280;57039;48.014;21.384;2023-09-19T02:53:40;100285.81;;;18.39;100.00
69766;BME280;57039;48.014;21.384;2023-09-19T02:54:44;100286.06;;;18.36;100.00
69766;BME280;57039;48.014;21.384;2023-09-19T02:55:47;100281.47;;;18.38;100.00
69766;BME280;57039;48.014;21.384;2023-09-19T02:56:51;100288.34;;;18.41;100.00
69766;BME280;57039;48.014;21.384;2023-09-19T02:57:56;100283.03;;;18.41;100.00
69766;BME280;57039;48.014;21.384;2023-09-19T02:58:59;100289.31;;;18.40;100.00
69766;BME280;57039;48.014;21.384;2023-09-19T03:00:03;100287.91;;;18.36;100.00
69766;BME280;57039;48.014;21.384;2023-09-19T03:01:10;100288.72;;;18.36;100.00
69766;BME280;57039;48.014;21.384;2023-09-19T03:02:15;100287.50;;;18.40;100.00
69766;BME280;57039;48.014;21.384;2023-09-19T03:03:18;100291.13;;;18.39;100.00
69766;BME280;57039;48.014;21.384;2023-09-19T03:04:21;100290.00;;;18.42;100.00
69766;BME280;57039;48.014;21.384;2023-09-19T03:05:25;100282.03;;;18.42;100.00
69766;BME280;57039;48.014;21.384;2023-09-19T03:06:29;100287.06;;;18.45;100.00
69766;BME280;57039;48.014;21.384;2023-09-19T03:07:34;100281.06;;;18.43;100.00
69766;BME280;57039;48.014;21.384;2023-09-19T03:08:37;100280.19;;;18.42;100.00
69766;BME280;57039;48.014;21.384;2023-09-19T03:09:42;100284.97;;;18.39;100.00
69766;BME280;57039;48.014;21.384;2023-09-19T03:10:47;100274.50;;;18.37;100.00
69766;BME280;57039;48.014;21.384;2023-09-19T03:11:51;100266.66;;;18.26;100.00
69766;BME280;57039;48.014;21.384;2023-09-19T03:12:54;100284.41;;;18.35;100.00
69766;BME280;57039;48.014;21.384;2023-09-19T03:13:57;100282.47;;;18.37;100.00
69766;BME280;57039;48.014;21.384;2023-09-19T03:15:02;100267.47;;;18.36;100.00
69766;BME280;57039;48.014;21.384;2023-09-19T03:16:05;100265.38;;;18.30;100.00
69766;BME280;57039;48.014;21.384;2023-09-19T03:17:08;100279.50;;;18.31;100.00
69766;BME280;57039;48.014;21.384;2023-09-19T03:18:12;100277.84;;;18.30;100.00
69766;BME280;57039;48.014;21.384;2023-09-19T03:19:16;100276.84;;;18.31;100.00
69766;BME280;57039;48.014;21.384;2023-09-19T03:20:19;100271.25;;;18.24;100.00
69766;BME280;57039;48.014;21.384;2023-09-19T03:21:24;100277.41;;;18.24;100.00
69766;BME280;57039;48.014;21.384;2023-09-19T03:22:28;100266.78;;;18.24;100.00
69766;BME280;57039;48.014;21.384;2023-09-19T03:23:31;100265.28;;;18.22;100.00
69766;BME280;57039;48.014;21.384;2023-09-19T03:24:34;100273.38;;;18.20;100.00
69766;BME280;57039;48.014;21.384;2023-09-19T03:25:39;100274.91;;;18.23;100.00
69766;BME280;57039;48.014;21.384;2023-09-19T03:26:42;100265.28;;;18.22;100.00
69766;BME280;57039;48.014;21.384;2023-09-19T03:27:46;100267.34;;;18.18;100.00
69766;BME280;57039;48.014;21.384;2023-09-19T03:28:49;100266.50;;;18.18;100.00
69766;BME280;57039;48.014;21.384;2023-09-19T03:29:55;100271.81;;;18.18;100.00
69766;BME280;57039;48.014;21.384;2023-09-19T03:31:03;100265.84;;;18.16;100.00
69766;BME280;57039;48.014;21.384;2023-09-19T03:32:06;100259.53;;;18.17;100.00
69766;BME280;57039;48.014;21.384;2023-09-19T03:33:11;100267.63;;;18.15;100.00
69766;BME280;57039;48.014;21.384;2023-09-19T03:34:15;100255.34;;;18.14;100.00
69766;BME280;57039;48.014;21.384;2023-09-19T03:35:19;100262.19;;;18.17;100.00
69766;BME280;57039;48.014;21.384;2023-09-19T03:36:22;100255.34;;;18.14;100.00
69766;BME280;57039;48.014;21.384;2023-09-19T03:37:26;100258.16;;;18.13;100.00
69766;BME280;57039;48.014;21.384;2023-09-19T03:38:28;100259.81;;;18.14;100.00
69766;BME280;57039;48.014;21.384;2023-09-19T03:39:32;100260.53;;;18.16;100.00
69766;BME280;57039;48.014;21.384;2023-09-19T03:40:35;100255.06;;;18.17;100.00
69766;BME280;57039;48.014;21.384;2023-09-19T03:41:40;100258.56;;;18.18;100.00
69766;BME280;57039;48.014;21.384;2023-09-19T03:42:43;100260.25;;;18.19;100.00
69766;BME280;57039;48.014;21.384;2023-09-19T03:43:46;100251.41;;;18.18;100.00
69766;BME280;57039;48.014;21.384;2023-09-19T03:44:49;100246.94;;;18.09;100.00
69766;BME280;57039;48.014;21.384;2023-09-19T03:45:53;100260.81;;;18.13;100.00
69766;BME280;57039;48.014;21.384;2023-09-19T03:46:57;100263.59;;;18.11;100.00
69766;BME280;57039;48.014;21.384;2023-09-19T03:48:00;100264.28;;;18.13;100.00
69766;BME280;57039;48.014;21.384;2023-09-19T03:49:03;100262.75;;;18.11;100.00
69766;BME280;57039;48.014;21.384;2023-09-19T03:50:07;100261.06;;;18.10;100.00
69766;BME280;57039;48.014;21.384;2023-09-19T03:51:13;100263.87;;;18.08;100.00
69766;BME280;57039;48.014;21.384;2023-09-19T03:52:16;100258.00;;;18.05;100.00
69766;BME280;57039;48.014;21.384;2023-09-19T03:53:19;100261.34;;;18.07;100.00
69766;BME280;57039;48.014;21.384;2023-09-19T03:54:22;100261.50;;;18.05;100.00
69766;BME280;57039;48.014;21.384;2023-09-19T03:55:25;100265.13;;;18.04;100.00
69766;BME280;57039;48.014;21.384;2023-09-19T03:56:29;100269.31;;;18.07;100.00
69766;BME280;57039;48.014;21.384;2023-09-19T03:57:32;100261.22;;;18.08;100.00
69766;BME280;57039;48.014;21.384;2023-09-19T03:58:35;100266.81;;;18.05;100.00
69766;BME280;57039;48.014;21.384;2023-09-19T03:59:42;100259.22;;;18.00;100.00
69766;BME280;57039;48.014;21.384;2023-09-19T04:00:45;100261.06;;;18.00;100.00
69766;BME280;57039;48.014;21.384;2023-09-19T04:01:49;100264.69;;;17.99;100.00
69766;BME280;57039;48.014;21.384;2023-09-19T04:02:53;100271.13;;;17.96;100.00
69766;BME280;57039;48.014;21.384;2023-09-19T04:03:56;100265.09;;;17.94;100.00
69766;BME280;57039;48.014;21.384;2023-09-19T04:04:59;100272.09;;;17.95;100.00
69766;BME280;57039;48.014;21.384;2023-09-19T04:06:02;100265.53;;;17.99;100.00
69766;BME280;57039;48.014;21.384;2023-09-19T04:07:05;100270.44;;;18.04;100.00
69766;BME280;57039;48.014;21.384;2023-09-19T04:08:08;100272.38;;;18.02;100.00
69766;BME280;57039;48.014;21.384;2023-09-19T04:09:11;100266.78;;;17.95;100.00
69766;BME280;57039;48.014;21.384;2023-09-19T04:10:16;100270.00;;;17.99;100.00
69766;BME280;57039;48.014;21.384;2023-09-19T04:11:19;100272.09;;;17.95;100.00
69766;BME280;57039;48.014;21.384;2023-09-19T04:12:22;100268.47;;;17.96;100.00
69766;BME280;57039;48.014;21.384;2023-09-19T04:13:26;100265.38;;;17.91;100.00
69766;BME280;57039;48.014;21.384;2023-09-19T04:14:29;100266.09;;;17.93;100.00
69766;BME280;57039;48.014;21.384;2023-09-19T04:15:32;100269.28;;;17.97;100.00
69766;BME280;57039;48.014;21.384;2023-09-19T04:16:34;100268.19;;;17.99;100.00
69766;BME280;57039;48.014;21.384;2023-09-19T04:17:38;100271.84;;;17.98;100.00
69766;BME280;57039;48.014;21.384;2023-09-19T04:18:41;100271.00;;;17.98;100.00
69766;BME280;57039;48.014;21.384;2023-09-19T04:19:44;100273.38;;;18.01;100.00
69766;BME280;57039;48.014;21.384;2023-09-19T04:20:52;100273.22;;;18.02;100.00
69766;BME280;57039;48.014;21.384;2023-09-19T04:21:55;100279.38;;;18.03;100.00
69766;BME280;57039;48.014;21.384;2023-09-19T04:22:58;100274.34;;;18.00;100.00
69766;BME280;57039;48.014;21.384;2023-09-19T04:24:02;100279.62;;;18.00;100.00
69766;BME280;57039;48.014;21.384;2023-09-19T04:25:05;100264.13;;;17.95;100.00
69766;BME280;57039;48.014;21.384;2023-09-19T04:26:11;100275.16;;;18.00;100.00
69766;BME280;57039;48.014;21.384;2023-09-19T04:27:15;100271.66;;;18.00;100.00
69766;BME280;57039;48.014;21.384;2023-09-19T04:28:18;100267.47;;;17.97;100.00
69766;BME280;57039;48.014;21.384;2023-09-19T04:29:21;100271.84;;;17.98;100.00
69766;BME280;57039;48.014;21.384;2023-09-19T04:30:24;100268.47;;;17.96;100.00
69766;BME280;57039;48.014;21.384;2023-09-19T04:31:27;100234.88;;;17.76;100.00
69766;BME280;57039;48.014;21.384;2023-09-19T04:32:30;100268.19;;;17.99;100.00
69766;BME280;57039;48.014;21.384;2023-09-19T04:33:35;100271.41;;;18.03;100.00
69766;BME280;57039;48.014;21.384;2023-09-19T04:34:38;100276.97;;;18.00;100.00
69766;BME280;57039;48.014;21.384;2023-09-19T04:35:41;100270.84;;;17.99;100.00
69766;BME280;57039;48.014;21.384;2023-09-19T04:36:47;100274.59;;;17.97;100.00
69766;BME280;57039;48.014;21.384;2023-09-19T04:37:50;100252.81;;;17.93;100.00
69766;BME280;57039;48.014;21.384;2023-09-19T04:38:54;100268.75;;;18.03;100.00
69766;BME280;57039;48.014;21.384;2023-09-19T04:39:57;100269.44;;;18.05;100.00
69766;BME280;57039;48.014;21.384;2023-09-19T04:41:00;100269.31;;;18.07;100.00
69766;BME280;57039;48.014;21.384;2023-09-19T04:42:03;100264.00;;;18.07;100.00
69766;BME280;57039;48.014;21.384;2023-09-19T04:43:06;100273.22;;;18.02;100.00
69766;BME280;57039;48.014;21.384;2023-09-19T04:44:10;100266.91;;;18.03;100.00
69766;BME280;57039;48.014;21.384;2023-09-19T04:45:13;100265.13;;;18.04;100.00
69766;BME280;57039;48.014;21.384;2023-09-19T04:46:16;100267.06;;;18.02;100.00
69766;BME280;57039;48.014;21.384;2023-09-19T04:47:20;100265.97;;;18.05;100.00
69766;BME280;57039;48.014;21.384;2023-09-19T04:48:24;100269.56;;;18.03;100.00
69766;BME280;57039;48.014;21.384;2023-09-19T04:49:28;100256.72;;;17.99;100.00
69766;BME280;57039;48.014;21.384;2023-09-19T04:50:30;100265.13;;;18.04;100.00
69766;BME280;57039;48.014;21.384;2023-09-19T04:51:33;100264.84;;;18.07;100.00
69766;BME280;57039;48.014;21.384;2023-09-19T04:52:42;100272.66;;;18.09;100.00
69766;BME280;57039;48.014;21.384;2023-09-19T04:53:47;100214.47;;;17.67;100.00
69766;BME280;57039;48.014;21.384;2023-09-19T04:54:51;100269.72;;;18.02;100.00
69766;BME280;57039;48.014;21.384;2023-09-19T04:55:53;100270.56;;;18.02;100.00
69766;BME280;57039;48.014;21.384;2023-09-19T04:56:58;100265.41;;;18.01;100.00
69766;BME280;57039;48.014;21.384;2023-09-19T04:58:01;100268.91;;;18.01;100.00
69766;BME280;57039;48.014;21.384;2023-09-19T04:59:05;100259.94;;;18.02;100.00
69766;BME280;57039;48.014;21.384;2023-09-19T05:00:08;100272.66;;;17.99;100.00
69766;BME280;57039;48.014;21.384;2023-09-19T05:01:15;100267.91;;;18.02;100.00
69766;BME280;57039;48.014;21.384;2023-09-19T05:02:19;100273.09;;;18.04;100.00
69766;BME280;57039;48.014;21.384;2023-09-19T05:03:22;100273.50;;;17.99;100.00
69766;BME280;57039;48.014;21.384;2023-09-19T05:04:25;100278.97;;;17.98;100.00
69766;BME280;57039;48.014;21.384;2023-09-19T05:05:28;100276.16;;;17.99;100.00
69766;BME280;57039;48.014;21.384;2023-09-19T05:06:31;100270.72;;;18.01;100.00
69766;BME280;57039;48.014;21.384;2023-09-19T05:07:38;100269.56;;;18.03;100.00
69766;BME280;57039;48.014;21.384;2023-09-19T05:08:42;100271.00;;;18.08;100.00
69766;BME280;57039;48.014;21.384;2023-09-19T05:09:45;100268.91;;;18.11;100.00
69766;BME280;57039;48.014;21.384;2023-09-19T05:10:48;100264.84;;;18.07;100.00
69766;BME280;57039;48.014;21.384;2023-09-19T05:11:51;100263.47;;;18.13;100.00
69766;BME280;57039;48.014;21.384;2023-09-19T05:12:55;100276.59;;;18.14;100.00
69766;BME280;57039;48.014;21.384;2023-09-19T05:13:57;100275.59;;;18.15;100.00
69766;BME280;57039;48.014;21.384;2023-09-19T05:15:05;100271.28;;;18.14;100.00
69766;BME280;57039;48.014;21.384;2023-09-19T05:16:11;100265.53;;;18.09;100.00
69766;BME280;57039;48.014;21.384;2023-09-19T05:17:15;100277.13;;;18.18;100.00
69766;BME280;57039;48.014;21.384;2023-09-19T05:18:19;100272.38;;;18.21;100.00
69766;BME280;57039;48.014;21.384;2023-09-19T05:19:22;100272.97;;;18.25;100.00
69766;BME280;57039;48.014;21.384;2023-09-19T05:20:25;100276.28;;;18.27;100.00
69766;BME280;57039;48.014;21.384;2023-09-19T05:21:41;100273.53;;;18.29;100.00
69766;BME280;57039;48.014;21.384;2023-09-19T05:22:44;100273.53;;;18.29;100.00
69766;BME280;57039;48.014;21.384;2023-09-19T05:23:48;100276.59;;;18.34;100.00
69766;BME280;57039;48.014;21.384;2023-09-19T05:24:52;100239.56;;;18.13;100.00
69766;BME280;57039;48.014;21.384;2023-09-19T05:25:55;100280.09;;;18.34;100.00
69766;BME280;57039;48.014;21.384;2023-09-19T05:27:01;100278.81;;;18.38;100.00
69766;BME280;57039;48.014;21.384;2023-09-19T05:28:07;100273.38;;;18.40;100.00
69766;BME280;57039;48.014;21.384;2023-09-19T05:29:10;100276.72;;;18.42;100.00
69766;BME280;57039;48.014;21.384;2023-09-19T05:30:13;100247.37;;;18.24;100.00
69766;BME280;57039;48.014;21.384;2023-09-19T05:31:17;100267.34;;;18.47;100.00
69766;BME280;57039;48.014;21.384;2023-09-19T05:32:20;100272.66;;;18.47;100.00
69766;BME280;57039;48.014;21.384;2023-09-19T05:33:23;100272.66;;;18.47;100.00
69766;BME280;57039;48.014;21.384;2023-09-19T05:34:26;100259.78;;;18.53;100.00
69766;BME280;57039;48.014;21.384;2023-09-19T05:35:33;100257.84;;;18.55;100.00
69766;BME280;57039;48.014;21.384;2023-09-19T05:36:36;100250.28;;;18.50;100.00
69766;BME280;57039;48.014;21.384;2023-09-19T05:37:39;100262.59;;;18.61;100.00
69766;BME280;57039;48.014;21.384;2023-09-19T05:38:42;100259.66;;;18.64;100.00
69766;BME280;57039;48.014;21.384;2023-09-19T05:39:47;100255.16;;;18.64;100.00
69766;BME280;57039;48.014;21.384;2023-09-19T05:40:49;100249.41;;;18.69;100.00
69766;BME280;57039;48.014;21.384;2023-09-19T05:41:52;100258.22;;;18.69;100.00